Tea, South Dakota
Current Conditions -  °F | °C
As of 12:56 PM on Tuesday 21 Oct 2014 (Local Time) from KFSD Reporting Station
Clear Clear  
Wind Chill: 20°   Ceiling: Unl
Heat Index: 20°   Visibility: 10mi
Dew Point:   Wind: 15mph
Humidity: 39%   Direction: 160°SSE
Pressure: 30.03"   Gusts: 23mph
Location:  43.45°N, 96.84°W
Report Text: KFSD 211756Z 16013G20KT 10SM CLR 20/06 A3003 RMK AO2 SLP171 T02000056 10200 20056 58015
Loading
Personal Weather Stations






























Interactive Weather Map
Tropical Storm Tracking
New forecast layout! Learn more

10-Day Weather Forecast

Advertisements
Track Severe Weather on mobile